createdAt,value
2022-08-17T00:06:57.424Z,24.48
2022-08-17T00:27:01.883Z,24.07
2022-08-17T00:47:05.178Z,23.98
2022-08-17T01:07:12.239Z,23.85
2022-08-17T01:27:18.448Z,23.80
2022-08-17T01:47:28.452Z,23.61
2022-08-17T02:07:59.434Z,23.47
2022-08-17T02:28:00.668Z,23.46
2022-08-17T02:48:04.779Z,23.26
2022-08-17T03:08:13.024Z,23.19
2022-08-17T03:28:17.437Z,23.10
2022-08-17T03:48:39.851Z,23.08
2022-08-17T04:08:43.556Z,22.99
2022-08-17T04:28:47.034Z,22.64
2022-08-17T04:48:53.357Z,22.59
2022-08-17T05:08:58.811Z,22.34
2022-08-17T05:29:03.061Z,22.67
2022-08-17T05:49:11.209Z,23.08
2022-08-17T06:09:25.741Z,23.48
2022-08-17T06:29:37.968Z,23.86
2022-08-17T06:49:55.456Z,24.56
2022-08-17T07:10:00.343Z,25.12
2022-08-17T07:30:10.973Z,25.74
2022-08-17T07:50:28.998Z,26.34
2022-08-17T08:10:45.338Z,27.09
2022-08-17T08:30:59.255Z,27.77
2022-08-17T08:51:24.709Z,28.56
2022-08-17T09:12:02.796Z,30.04
2022-08-17T09:32:18.432Z,43.13
2022-08-17T09:52:30.118Z,43.92
2022-08-17T10:12:49.084Z,41.94
2022-08-17T10:33:23.588Z,42.92
2022-08-17T10:53:32.930Z,39.89
2022-08-17T11:13:40.163Z,37.09
2022-08-17T11:33:44.780Z,34.96
2022-08-17T11:53:48.362Z,34.69
2022-08-17T12:13:56.105Z,33.96
2022-08-17T12:34:00.567Z,35.15
2022-08-17T12:54:03.843Z,34.75
2022-08-17T13:14:10.707Z,35.42
2022-08-17T13:34:18.868Z,35.20
2022-08-17T13:54:30.176Z,34.32
2022-08-17T14:14:33.642Z,33.66
2022-08-17T14:34:37.219Z,35.90
2022-08-17T14:54:45.567Z,35.09
2022-08-17T15:14:49.346Z,34.89
2022-08-17T15:35:13.361Z,34.80
2022-08-17T15:55:20.781Z,34.70
2022-08-17T16:15:26.997Z,33.68
2022-08-17T16:35:30.433Z,33.66
2022-08-17T16:55:35.847Z,32.95
2022-08-17T17:15:47.424Z,31.95
2022-08-17T17:35:54.974Z,30.86
2022-08-17T17:56:34.289Z,30.51
2022-08-17T18:16:42.950Z,30.23
2022-08-17T18:36:46.601Z,29.47
2022-08-17T18:56:59.154Z,29.19
2022-08-17T19:17:09.194Z,28.88
2022-08-17T19:37:32.756Z,29.03
2022-08-17T19:57:43.700Z,28.37
2022-08-17T20:17:48.620Z,28.26
2022-08-17T20:37:57.505Z,28.25
2022-08-17T20:58:16.238Z,27.91
2022-08-17T21:18:47.641Z,27.74
2022-08-17T21:38:57.431Z,27.54
2022-08-17T21:59:16.258Z,27.41
2022-08-17T22:19:21.909Z,27.26
2022-08-17T22:39:26.336Z,27.06
2022-08-17T23:00:04.802Z,26.89
2022-08-17T23:20:12.194Z,26.43
2022-08-17T23:40:15.792Z,26.16
